Upton, New York
Current Conditions -  °F | °C
As of 2:56 PM on Sunday 25 Jan 2015 (Local Time) from KHWV Reporting Station
Clear Clear  
Wind Chill: 31°   Ceiling: Unl
Heat Index: 40°   Visibility: 10mi
Dew Point: 14°   Wind: 18mph
Humidity: 35%   Direction: 300°WNW
Pressure: 29.78"   Gusts: 25mph
Location:  40.87°N, 72.89°W
Report Text: KHWV 251956Z AUTO 30016G22KT 10SM CLR 04/M10 A2978 RMK AO2 SLP085 T00441100 TSNO
Loading
Personal Weather Stations






























Interactive Weather Map New forecast layout! Learn more

10-Day Weather Forecast

Advertisements
Track Severe Weather on mobile